Time;durP1;ratioP1;P1;durP2;ratioP2;P2;SDS_P1;SDS_P2;PMS_P1;PMS_P2;Temp;Humidity;BMP_temperature;BMP_pressure;BME280_temperature;BME280_humidity;BME280_pressure;Samples;Min_cycle;Max_cycle;Signal;HPM_P1;HPM_P2
2023/03/12 00:01:22;;;;;;;3.43;3.13;;;16.30;56.20;17.10;100374.00;;;;5011982;28;20195;-47
2023/03/12 00:03:48;;;;;;;3.33;3.03;;;16.20;56.10;17.10;100383.00;;;;5011727;28;20207;-46
2023/03/12 00:06:15;;;;;;;3.33;3.03;;;16.20;56.20;17.10;100381.00;;;;5011235;28;20211;-46
2023/03/12 00:08:41;;;;;;;3.40;3.10;;;16.20;56.20;17.10;100380.00;;;;5011438;28;20196;-46
2023/03/12 00:11:15;;;;;;;3.67;3.37;;;16.20;56.20;17.00;100390.00;;;;5010818;28;20204;-46
2023/03/12 00:13:41;;;;;;;3.20;3.00;;;16.20;56.20;17.00;100387.00;;;;5010890;28;20174;-46
2023/03/12 00:16:10;;;;;;;3.40;3.10;;;16.20;56.20;17.00;100380.00;;;;5011213;28;20205;-46
2023/03/12 00:18:35;;;;;;;3.30;3.00;;;16.10;56.20;17.00;100374.00;;;;5010867;28;20195;-46
2023/03/12 00:21:01;;;;;;;3.27;2.97;;;16.10;56.20;17.00;100378.00;;;;5010813;28;20274;-46
2023/03/12 00:23:27;;;;;;;3.50;3.20;;;16.10;56.20;16.90;100374.00;;;;5010511;28;20204;-46
2023/03/12 00:25:53;;;;;;;3.07;2.87;;;16.10;56.20;16.90;100369.00;;;;5011004;28;20181;-45
2023/03/12 00:28:18;;;;;;;3.37;3.07;;;16.10;56.20;16.90;100368.00;;;;5010653;28;20199;-45
2023/03/12 00:30:44;;;;;;;3.20;2.90;;;16.00;56.20;16.90;100375.00;;;;5010803;28;20268;-46
2023/03/12 00:33:10;;;;;;;3.17;2.87;;;16.00;56.20;16.90;100359.00;;;;5009349;28;20643;-47
2023/03/12 00:35:39;;;;;;;3.17;2.87;;;16.00;56.30;16.80;100370.00;;;;5009693;28;20666;-47
2023/03/12 00:38:05;;;;;;;2.93;2.73;;;15.90;56.20;16.80;100357.00;;;;5010056;28;20199;-47
2023/03/12 00:40:30;;;;;;;3.30;3.00;;;16.00;56.30;16.80;100356.00;;;;5010244;28;20185;-50
2023/03/12 00:42:56;;;;;;;3.23;2.93;;;15.90;56.20;16.80;100358.00;;;;5009710;28;20198;-47
2023/03/12 00:45:22;;;;;;;3.20;2.90;;;15.90;56.20;16.70;100359.00;;;;5010411;28;20238;-47
2023/03/12 00:47:48;;;;;;;2.97;2.77;;;15.90;56.20;16.70;100350.00;;;;5009436;28;20211;-47
2023/03/12 00:50:13;;;;;;;2.97;2.77;;;15.90;56.20;16.70;100347.00;;;;5010112;28;20183;-46
2023/03/12 00:52:39;;;;;;;2.70;2.50;;;15.90;56.20;16.70;100349.00;;;;5009531;28;20230;-47
2023/03/12 00:55:05;;;;;;;3.10;2.90;;;15.90;56.20;16.70;100340.00;;;;5010057;28;20322;-46
2023/03/12 00:57:31;;;;;;;3.20;2.90;;;15.80;56.10;16.70;100354.00;;;;5010146;28;20215;-47
2023/03/12 00:59:56;;;;;;;2.93;2.63;;;15.90;56.20;16.60;100344.00;;;;5011437;28;20179;-46
2023/03/12 01:02:22;;;;;;;3.13;2.70;;;15.80;56.20;16.60;100343.00;;;;5011071;28;20666;-46
2023/03/12 01:04:48;;;;;;;3.20;2.90;;;15.80;56.30;16.60;100339.00;;;;5009153;28;20202;-46
2023/03/12 01:07:13;;;;;;;3.03;2.80;;;15.80;56.30;16.60;100338.00;;;;5008940;28;20203;-45
2023/03/12 01:09:39;;;;;;;3.20;2.90;;;15.80;56.30;16.60;100337.00;;;;5009473;28;20659;-46
2023/03/12 01:12:05;;;;;;;2.90;2.60;;;15.70;56.10;16.50;100344.00;;;;5009663;28;20184;-46
2023/03/12 01:14:31;;;;;;;3.50;3.00;;;15.70;56.10;16.50;100337.00;;;;5008582;28;20179;-46
2023/03/12 01:16:57;;;;;;;2.90;2.70;;;15.70;56.10;16.50;100341.00;;;;5009612;28;20218;-46
2023/03/12 01:19:22;;;;;;;2.67;2.47;;;15.70;56.10;16.50;100335.00;;;;5009798;28;20263;-46
2023/03/12 01:21:48;;;;;;;3.00;2.80;;;15.60;56.00;16.50;100335.00;;;;5009860;28;20179;-46
2023/03/12 01:24:14;;;;;;;3.03;2.80;;;15.60;56.10;16.50;100337.00;;;;5009507;28;20194;-47
2023/03/12 01:26:39;;;;;;;3.03;2.73;;;15.60;56.20;16.40;100332.00;;;;5010002;28;20191;-46
2023/03/12 01:29:05;;;;;;;2.93;2.73;;;15.60;56.20;16.40;100320.00;;;;5009654;28;20216;-47
2023/03/12 01:31:31;;;;;;;2.73;2.53;;;15.60;56.30;16.40;100326.00;;;;5009891;28;20171;-46
2023/03/12 01:33:56;;;;;;;2.90;2.70;;;15.50;56.20;16.40;100325.00;;;;5009801;28;20636;-47
2023/03/12 01:36:26;;;;;;;2.90;2.70;;;15.50;56.10;16.40;100299.00;;;;5009741;28;20195;-47
2023/03/12 01:38:56;;;;;;;2.77;2.40;;;15.50;56.20;16.30;100311.00;;;;5008264;28;20310;-46
2023/03/12 01:41:23;;;;;;;2.70;2.50;;;15.50;56.20;16.30;100307.00;;;;5007952;28;20619;-46
2023/03/12 01:43:49;;;;;;;3.23;2.53;;;15.50;56.80;16.30;100303.00;;;;5009624;28;20172;-46
2023/03/12 01:46:29;;;;;;;2.70;2.40;;;15.50;56.20;16.30;100309.00;;;;5012959;28;20180;-46
2023/03/12 01:49:24;;;;;;;3.60;2.70;;;15.50;56.40;16.30;100294.00;;;;5012782;28;20290;-46
2023/03/12 01:52:19;;;;;;;2.60;2.40;;;15.40;56.40;16.20;100294.00;;;;4994921;28;20179;-46
2023/03/12 01:54:52;;;;;;;2.70;2.50;;;15.40;56.30;16.20;100294.00;;;;5012725;28;20172;-46
2023/03/12 01:57:21;;;;;;;2.73;2.43;;;15.40;56.30;16.20;100297.00;;;;5012440;28;20211;-46
2023/03/12 02:00:04;;;;;;;2.50;2.30;;;15.40;56.40;16.20;100286.00;;;;4995902;28;20824;-46
2023/03/12 02:02:30;;;;;;;2.60;2.40;;;15.40;56.30;16.20;100281.00;;;;5015308;28;20199;-46
2023/03/12 02:05:21;;;;;;;2.53;2.33;;;15.40;56.30;16.10;100266.00;;;;5015719;28;20187;-46
2023/03/12 02:07:47;;;;;;;2.70;2.40;;;15.30;56.20;16.10;100267.00;;;;5011669;28;20204;-46
2023/03/12 02:10:13;;;;;;;2.63;2.43;;;15.30;56.20;16.10;100263.00;;;;5012696;28;20183;-46
2023/03/12 02:12:39;;;;;;;2.60;2.40;;;15.30;56.20;16.10;100274.00;;;;4994700;28;20183;-45
2023/03/12 02:15:05;;;;;;;2.83;2.30;;;15.30;56.20;16.10;100273.00;;;;5012515;28;20179;-47
2023/03/12 02:17:31;;;;;;;2.50;2.30;;;15.30;56.20;16.10;100269.00;;;;5011622;28;20199;-46
2023/03/12 02:20:18;;;;;;;2.30;2.10;;;15.30;56.20;16.10;100276.00;;;;5011004;28;20251;-46
2023/03/12 02:22:50;;;;;;;2.50;2.30;;;15.20;56.80;16.00;100259.00;;;;5012908;28;20183;-50
2023/03/12 02:25:30;;;;;;;2.50;2.30;;;15.20;56.20;16.00;100272.00;;;;5014742;28;20650;-45
2023/03/12 02:27:59;;;;;;;2.63;2.43;;;15.20;56.20;16.00;100265.00;;;;5015203;28;20207;-46
2023/03/12 02:30:27;;;;;;;2.53;2.33;;;15.20;56.20;16.00;100268.00;;;;5014184;28;20172;-46
2023/03/12 02:32:52;;;;;;;2.40;2.20;;;15.20;56.20;16.00;100248.00;;;;5010440;28;20171;-47
2023/03/12 02:35:18;;;;;;;2.53;2.33;;;15.10;56.20;16.00;100272.00;;;;5010580;28;20182;-47
2023/03/12 02:37:51;;;;;;;2.43;2.23;;;15.10;56.10;16.00;100277.00;;;;5011802;28;20198;-47
2023/03/12 02:40:37;;;;;;;2.53;2.33;;;15.10;56.20;16.00;100254.00;;;;5012242;28;20203;-45
2023/03/12 02:43:05;;;;;;;2.30;2.10;;;15.10;56.10;16.00;100252.00;;;;5009959;28;20188;-47
2023/03/12 02:45:31;;;;;;;2.40;2.20;;;15.10;56.10;16.00;100254.00;;;;5010431;28;20188;-47
2023/03/12 02:47:56;;;;;;;2.40;2.20;;;15.10;56.00;16.00;100257.00;;;;5010434;28;20265;-47
2023/03/12 02:50:22;;;;;;;2.50;2.30;;;15.10;56.00;16.00;100255.00;;;;5012524;28;20193;-47
2023/03/12 02:52:48;;;;;;;2.30;2.10;;;15.10;56.00;16.00;100248.00;;;;5012052;28;20195;-47
2023/03/12 02:55:14;;;;;;;2.50;2.30;;;15.10;55.90;16.00;100258.00;;;;5011400;28;20679;-46
2023/03/12 02:57:39;;;;;;;2.50;2.30;;;15.10;55.90;16.00;100251.00;;;;5011127;28;20191;-46
2023/03/12 03:00:13;;;;;;;2.33;2.13;;;15.10;55.90;16.00;100252.00;;;;5011331;28;20187;-46
2023/03/12 03:02:40;;;;;;;2.27;2.07;;;15.10;55.90;16.00;100242.00;;;;5011241;28;20238;-46
2023/03/12 03:05:06;;;;;;;2.63;2.43;;;15.10;55.80;16.00;100241.00;;;;5011098;28;20176;-46
2023/03/12 03:07:32;;;;;;;2.30;2.10;;;15.10;55.80;16.00;100250.00;;;;5010673;28;20274;-46
2023/03/12 03:10:03;;;;;;;2.33;2.13;;;15.00;55.70;16.00;100249.00;;;;5010497;28;20294;-46
2023/03/12 03:12:33;;;;;;;2.47;2.27;;;15.00;55.70;16.00;100242.00;;;;5010848;28;20175;-45
2023/03/12 03:14:59;;;;;;;2.30;2.10;;;15.00;56.30;16.00;100227.00;;;;5010522;28;20226;-45
2023/03/12 03:17:25;;;;;;;2.40;2.20;;;15.00;55.60;16.00;100228.00;;;;5010536;28;20191;-47
2023/03/12 03:19:51;;;;;;;2.20;2.00;;;15.10;55.70;16.00;100221.00;;;;5010714;28;20167;-47
2023/03/12 03:22:17;;;;;;;2.40;2.20;;;15.00;55.60;16.00;100220.00;;;;5010290;28;20669;-46
2023/03/12 03:24:43;;;;;;;2.40;2.20;;;15.00;55.60;16.00;100211.00;;;;5012391;28;20188;-46
2023/03/12 03:27:08;;;;;;;2.20;2.10;;;15.00;55.60;16.00;100218.00;;;;5012292;28;20216;-45
2023/03/12 03:29:34;;;;;;;2.40;2.20;;;15.00;55.60;16.00;100226.00;;;;5011657;28;20257;-46
2023/03/12 03:32:00;;;;;;;2.10;2.00;;;15.00;55.60;15.90;100224.00;;;;5012291;28;20187;-46
2023/03/12 03:34:25;;;;;;;2.40;2.20;;;15.00;55.60;15.90;100238.00;;;;5011623;28;20217;-46
2023/03/12 03:36:51;;;;;;;2.50;2.30;;;14.90;55.60;15.90;100224.00;;;;5010837;28;20208;-46
2023/03/12 03:39:17;;;;;;;2.50;2.30;;;14.90;55.50;15.90;100216.00;;;;5012913;28;20322;-46
2023/03/12 03:41:44;;;;;;;2.20;2.00;;;14.90;55.50;15.90;100210.00;;;;5010718;28;20732;-46
2023/03/12 03:44:10;;;;;;;2.27;2.07;;;14.90;55.50;15.90;100213.00;;;;5010669;28;20194;-46
2023/03/12 03:46:36;;;;;;;2.40;2.20;;;14.90;55.40;15.90;100205.00;;;;5010324;28;20522;-46
2023/03/12 03:49:01;;;;;;;2.37;2.17;;;14.90;55.50;15.90;100207.00;;;;5011308;28;20694;-47
2023/03/12 03:51:27;;;;;;;2.33;2.13;;;14.90;55.50;15.90;100207.00;;;;5011525;28;20190;-47
2023/03/12 03:53:53;;;;;;;2.40;2.20;;;14.90;55.50;15.90;100214.00;;;;5022425;28;20179;-45
2023/03/12 03:56:19;;;;;;;2.27;2.07;;;14.90;55.50;15.90;100212.00;;;;5022751;28;20203;-46
2023/03/12 03:58:44;;;;;;;2.30;2.10;;;14.90;55.50;15.80;100212.00;;;;5013227;28;20199;-46
2023/03/12 04:01:12;;;;;;;2.30;2.10;;;14.90;55.50;15.80;100218.00;;;;5010575;28;20184;-47
2023/03/12 04:03:38;;;;;;;2.43;2.23;;;14.80;55.30;15.80;100227.00;;;;5009063;28;20263;-46
2023/03/12 04:06:05;;;;;;;2.17;2.07;;;14.80;55.40;15.60;100214.00;;;;5010307;28;20571;-46
2023/03/12 04:08:34;;;;;;;2.10;2.00;;;14.80;55.40;15.80;100207.00;;;;5010010;28;20579;-46
2023/03/12 04:11:06;;;;;;;2.30;2.07;;;14.80;55.40;15.80;100203.00;;;;5010245;28;20198;-46
2023/03/12 04:13:32;;;;;;;2.30;2.10;;;14.80;56.00;15.80;100213.00;;;;5010663;28;20183;-47
2023/03/12 04:15:57;;;;;;;2.20;2.00;;;14.80;55.30;15.80;100215.00;;;;5009794;28;20171;-47
2023/03/12 04:18:23;;;;;;;2.20;2.00;;;14.80;55.40;15.80;100203.00;;;;5009937;28;20219;-46
2023/03/12 04:20:49;;;;;;;2.30;2.10;;;14.80;55.30;15.70;100211.00;;;;5010895;28;20188;-46
2023/03/12 04:23:14;;;;;;;2.17;2.00;;;14.70;55.30;15.70;100212.00;;;;5010640;28;20195;-47
2023/03/12 04:25:40;;;;;;;2.20;1.97;;;14.70;55.30;15.70;100123.00;;;;5010526;28;20198;-46
2023/03/12 04:28:06;;;;;;;2.30;2.10;;;14.70;55.30;15.70;100200.00;;;;5010289;28;20219;-46
2023/03/12 04:30:32;;;;;;;2.03;1.93;;;14.70;55.40;15.70;100194.00;;;;5008746;28;20190;-45
2023/03/12 04:32:57;;;;;;;2.37;2.17;;;14.70;55.30;15.70;100201.00;;;;5007099;28;20180;-47
2023/03/12 04:35:23;;;;;;;2.07;1.87;;;14.70;55.30;15.70;100190.00;;;;5004428;28;20187;-46
2023/03/12 04:37:50;;;;;;;2.30;2.10;;;14.70;55.40;15.70;100184.00;;;;5008874;28;20199;-46
2023/03/12 04:40:18;;;;;;;5.13;2.20;;;14.70;55.40;15.70;100192.00;;;;5011286;28;20183;-46
2023/03/12 04:42:43;;;;;;;7.33;2.40;;;14.70;55.40;15.60;100194.00;;;;5009395;28;20175;-45
2023/03/12 04:45:10;;;;;;;3.90;2.47;;;14.70;55.50;15.60;100190.00;;;;5009373;28;20248;-46
2023/03/12 04:47:36;;;;;;;5.77;2.40;;;14.60;55.40;15.60;100194.00;;;;5009040;28;20199;-47
2023/03/12 04:50:01;;;;;;;2.80;2.00;;;14.60;55.20;15.60;100194.00;;;;5008862;28;20215;-46
2023/03/12 04:52:27;;;;;;;2.57;2.20;;;14.60;55.20;15.60;100188.00;;;;5008542;28;20198;-47
2023/03/12 04:54:53;;;;;;;4.07;2.20;;;14.60;55.10;15.60;100190.00;;;;5008692;28;20235;-46
2023/03/12 04:57:19;;;;;;;5.40;2.20;;;14.50;55.00;15.50;100191.00;;;;5008761;28;20215;-45
2023/03/12 04:59:45;;;;;;;2.20;2.00;;;14.50;55.00;15.50;100193.00;;;;5008658;28;20532;-47
2023/03/12 05:02:10;;;;;;;4.40;2.37;;;14.50;54.90;15.50;100192.00;;;;5008115;28;20214;-46
2023/03/12 05:04:36;;;;;;;2.67;2.20;;;14.50;54.80;15.50;100184.00;;;;5009067;28;20329;-46
2023/03/12 05:07:02;;;;;;;2.47;2.23;;;14.60;54.80;15.50;100184.00;;;;5008620;28;20814;-47
2023/03/12 05:09:28;;;;;;;2.63;1.90;;;14.50;54.70;15.50;100184.00;;;;5007356;28;20212;-46
2023/03/12 05:11:53;;;;;;;2.50;2.30;;;14.50;54.60;15.50;100187.00;;;;5008175;28;20564;-46
2023/03/12 05:14:19;;;;;;;2.93;2.10;;;14.50;54.40;15.50;100177.00;;;;5007554;28;20258;-47
2023/03/12 05:16:45;;;;;;;2.67;2.20;;;14.50;54.30;15.50;100176.00;;;;5008208;28;20182;-46
2023/03/12 05:19:11;;;;;;;2.23;2.03;;;14.50;54.40;15.50;100166.00;;;;5009279;28;20824;-47
2023/03/12 05:21:38;;;;;;;2.07;1.87;;;14.40;54.50;15.50;100163.00;;;;5012800;28;20199;-47
2023/03/12 05:24:04;;;;;;;2.47;2.13;;;14.40;54.40;15.40;100171.00;;;;5012186;28;20710;-47
2023/03/12 05:26:31;;;;;;;2.27;2.00;;;14.40;54.50;15.40;100161.00;;;;5012728;28;20218;-46
2023/03/12 05:29:01;;;;;;;2.47;2.00;;;14.40;54.40;15.40;100151.00;;;;5006520;28;20236;-46
2023/03/12 05:31:27;;;;;;;3.20;2.17;;;14.40;54.30;15.40;100149.00;;;;5006460;28;20248;-46
2023/03/12 05:33:53;;;;;;;2.63;2.20;;;14.40;54.30;15.40;100147.00;;;;5006231;28;20175;-45
2023/03/12 05:36:18;;;;;;;3.73;2.20;;;14.40;54.50;15.40;100143.00;;;;5011877;28;20176;-45
2023/03/12 05:38:44;;;;;;;3.33;2.10;;;14.40;54.60;15.40;100143.00;;;;5008589;28;20650;-45
2023/03/12 05:41:25;;;;;;;2.30;2.10;;;14.40;54.60;15.40;100128.00;;;;5003782;28;20201;-45
2023/03/12 05:43:52;;;;;;;5.90;2.53;;;14.40;54.60;15.40;100131.00;;;;5012403;28;20175;-45
2023/03/12 05:46:18;;;;;;;13.57;3.77;;;14.40;54.60;15.30;100127.00;;;;5010383;28;20174;-46
2023/03/12 05:48:43;;;;;;;11.90;3.57;;;14.30;54.60;15.30;100107.00;;;;5011118;28;20211;-45
2023/03/12 05:51:09;;;;;;;16.63;3.70;;;14.40;54.70;15.30;100136.00;;;;5007391;28;20843;-47
2023/03/12 05:53:35;;;;;;;10.87;3.07;;;14.30;54.60;15.30;100128.00;;;;5008008;28;20187;-46
2023/03/12 05:56:09;;;;;;;21.57;3.77;;;14.30;54.70;15.30;100117.00;;;;5013733;28;20211;-46
2023/03/12 05:58:36;;;;;;;10.53;3.13;;;14.30;54.80;15.30;100113.00;;;;5013551;28;20322;-45
2023/03/12 06:01:03;;;;;;;13.33;3.37;;;14.30;55.00;15.30;100104.00;;;;5010609;28;20175;-46
2023/03/12 06:03:29;;;;;;;10.73;3.10;;;14.30;55.00;15.30;100101.00;;;;5012278;28;20246;-45
2023/03/12 06:05:55;;;;;;;10.93;3.00;;;14.30;55.00;15.30;100108.00;;;;5012111;28;20180;-47
2023/03/12 06:08:22;;;;;;;10.40;3.20;;;14.30;55.20;15.30;100115.00;;;;5012690;28;20725;-46
2023/03/12 06:10:53;;;;;;;11.53;2.90;;;14.30;55.20;15.30;100102.00;;;;5012822;28;20175;-46
2023/03/12 06:13:22;;;;;;;9.37;2.77;;;14.30;55.30;15.30;100096.00;;;;5012768;28;20314;-47
2023/03/12 06:15:48;;;;;;;7.10;2.90;;;14.30;55.30;15.30;100099.00;;;;5013020;28;20206;-46
2023/03/12 06:18:14;;;;;;;10.40;3.40;;;14.30;55.30;15.00;100098.00;;;;5013040;28;20202;-46
2023/03/12 06:20:39;;;;;;;7.70;2.80;;;14.20;55.20;15.20;100103.00;;;;5011918;28;20179;-46
2023/03/12 06:23:05;;;;;;;6.00;2.73;;;14.20;55.20;15.20;100093.00;;;;5011119;28;20207;-46
2023/03/12 06:25:31;;;;;;;5.77;2.40;;;14.30;55.30;15.20;100096.00;;;;5009414;28;20176;-45
2023/03/12 06:27:57;;;;;;;9.80;2.87;;;14.20;55.30;15.20;100090.00;;;;5012506;28;20218;-45
2023/03/12 06:30:23;;;;;;;4.77;2.50;;;14.10;55.30;15.20;100073.00;;;;5012046;28;20179;-46
2023/03/12 06:32:48;;;;;;;7.20;2.83;;;14.20;55.40;15.20;100085.00;;;;5012698;28;20222;-46
2023/03/12 06:35:14;;;;;;;5.63;2.60;;;14.10;55.30;15.10;100069.00;;;;5013783;28;20164;-46
2023/03/12 06:37:40;;;;;;;6.50;2.83;;;14.20;55.30;15.20;100068.00;;;;5016917;28;20736;-46
2023/03/12 06:40:08;;;;;;;6.37;2.77;;;14.10;55.40;15.20;100070.00;;;;5014630;28;20179;-46
2023/03/12 06:42:34;;;;;;;7.67;2.47;;;14.10;55.70;15.20;100074.00;;;;5013278;28;20209;-46
2023/03/12 06:45:00;;;;;;;7.20;2.53;;;14.20;55.60;15.10;100086.00;;;;5012187;28;20179;-46
2023/03/12 06:47:26;;;;;;;7.03;2.90;;;14.20;55.50;15.20;100063.00;;;;5011496;28;20191;-46
2023/03/12 06:49:51;;;;;;;5.13;2.47;;;14.30;55.60;15.20;100089.00;;;;5012219;28;20697;-46
2023/03/12 06:52:17;;;;;;;6.10;2.50;;;14.30;55.50;15.20;100074.00;;;;5011377;28;20179;-46
2023/03/12 06:54:43;;;;;;;4.77;2.47;;;14.40;55.50;15.20;100078.00;;;;5011380;28;20195;-46
2023/03/12 06:57:09;;;;;;;5.33;2.73;;;14.50;55.50;15.30;100080.00;;;;5011475;28;20596;-47
2023/03/12 06:59:34;;;;;;;4.27;2.43;;;14.60;55.60;15.30;100079.00;;;;5011935;28;20263;-46
2023/03/12 07:02:00;;;;;;;5.80;2.67;;;14.60;55.50;15.40;100095.00;;;;5011678;28;20182;-46
2023/03/12 07:04:26;;;;;;;5.37;2.67;;;14.70;55.50;15.40;100104.00;;;;5012242;28;20658;-46
2023/03/12 07:06:52;;;;;;;4.87;2.17;;;14.80;55.50;15.50;100115.00;;;;5010471;28;20679;-46
2023/03/12 07:09:18;;;;;;;5.03;2.70;;;14.90;55.50;15.60;100109.00;;;;5010965;28;20191;-46
2023/03/12 07:11:43;;;;;;;4.93;2.53;;;15.00;55.40;15.70;100103.00;;;;5011462;28;20176;-46
2023/03/12 07:14:09;;;;;;;4.27;2.10;;;15.10;55.50;15.80;100096.00;;;;5011655;28;20754;-46
2023/03/12 07:16:35;;;;;;;4.20;2.37;;;15.30;55.50;15.90;100096.00;;;;5012167;28;20275;-47
2023/03/12 07:19:00;;;;;;;4.03;2.17;;;15.30;55.40;16.00;100087.00;;;;5011861;28;20183;-46
2023/03/12 07:21:30;;;;;;;4.20;2.40;;;15.40;55.30;16.10;100099.00;;;;5011169;28;20181;-46
2023/03/12 07:23:56;;;;;;;6.73;2.27;;;15.50;55.20;16.20;100099.00;;;;5009737;28;20230;-47
2023/03/12 07:26:22;;;;;;;3.37;2.00;;;15.60;55.30;16.20;100082.00;;;;5009730;28;20195;-47
2023/03/12 07:28:47;;;;;;;5.40;2.40;;;15.80;55.40;16.30;100020.00;;;;5017966;28;20261;-47
2023/03/12 07:31:13;;;;;;;2.80;2.17;;;15.80;55.40;16.40;100084.00;;;;5023923;28;20190;-46
2023/03/12 07:33:39;;;;;;;2.97;1.93;;;15.90;55.30;16.50;100090.00;;;;5012100;28;20187;-46
2023/03/12 07:36:05;;;;;;;4.00;2.10;;;16.00;55.30;16.60;100100.00;;;;5010902;28;20254;-47
2023/03/12 07:38:31;;;;;;;4.57;2.30;;;16.00;55.20;16.70;100093.00;;;;5010679;28;20199;-47
2023/03/12 07:40:57;;;;;;;3.27;2.10;;;16.10;55.20;16.70;100086.00;;;;5011040;28;20665;-46
2023/03/12 07:43:23;;;;;;;3.73;2.27;;;16.20;55.10;16.80;100085.00;;;;5010560;28;20545;-46
2023/03/12 07:45:49;;;;;;;2.33;1.93;;;16.30;55.30;16.80;100079.00;;;;5010300;28;20184;-46
2023/03/12 07:48:14;;;;;;;3.17;1.97;;;16.30;55.30;16.90;100075.00;;;;5008479;28;20204;-46
2023/03/12 07:50:40;;;;;;;2.70;2.07;;;16.30;55.30;17.00;100079.00;;;;5010891;28;20251;-47
2023/03/12 07:53:06;;;;;;;2.27;1.97;;;16.30;55.20;17.00;100075.00;;;;5008515;28;20646;-46
2023/03/12 07:55:33;;;;;;;2.57;1.93;;;16.30;55.20;17.00;100075.00;;;;5010142;28;20175;-51
2023/03/12 07:57:59;;;;;;;2.20;1.97;;;16.40;55.30;17.10;100075.00;;;;5010503;28;20195;-47
2023/03/12 08:00:25;;;;;;;3.20;1.80;;;16.50;55.40;17.10;100061.00;;;;5008448;28;20167;-46
2023/03/12 08:02:51;;;;;;;2.83;1.97;;;16.50;55.30;17.10;100075.00;;;;5008518;28;20175;-47
2023/03/12 08:05:17;;;;;;;3.37;2.00;;;16.50;55.30;17.20;100079.00;;;;5007611;28;20545;-47
2023/03/12 08:07:43;;;;;;;2.73;2.00;;;16.50;55.30;17.20;100063.00;;;;5008631;28;20192;-47
2023/03/12 08:10:09;;;;;;;2.50;2.10;;;16.50;55.30;17.20;100075.00;;;;5006783;28;20212;-47
2023/03/12 08:12:38;;;;;;;2.83;1.80;;;16.50;55.40;17.30;100083.00;;;;5008730;28;20176;-47
2023/03/12 08:15:05;;;;;;;2.17;1.83;;;16.60;55.50;17.30;100082.00;;;;5010054;28;20200;-46
2023/03/12 08:17:31;;;;;;;2.90;2.00;;;16.50;55.60;17.30;100079.00;;;;5009340;28;20671;-47
2023/03/12 08:19:57;;;;;;;2.03;1.67;;;16.50;55.70;17.30;100090.00;;;;5010906;28;20267;-46
2023/03/12 08:22:23;;;;;;;3.97;1.90;;;16.50;55.70;17.30;100094.00;;;;5009831;28;20235;-46
2023/03/12 08:24:48;;;;;;;2.47;1.77;;;16.50;55.80;17.30;100090.00;;;;5009760;28;20219;-45
2023/03/12 08:27:14;;;;;;;5.27;1.97;;;16.50;56.00;17.30;100079.00;;;;5001604;28;20212;-45
2023/03/12 08:29:41;;;;;;;4.60;2.20;;;16.60;56.10;17.30;100075.00;;;;5009734;28;20307;-46
2023/03/12 08:32:07;;;;;;;4.03;2.03;;;16.60;56.70;17.40;100084.00;;;;5007203;28;20254;-44
2023/03/12 08:34:33;;;;;;;5.50;2.00;;;16.60;56.40;17.40;100081.00;;;;5010102;28;20209;-45
2023/03/12 08:36:59;;;;;;;2.80;1.87;;;16.60;56.40;17.40;100088.00;;;;5009006;28;20206;-45
2023/03/12 08:39:25;;;;;;;4.97;1.90;;;16.60;56.40;17.40;100088.00;;;;5008236;28;20181;-46
2023/03/12 08:41:54;;;;;;;2.47;1.80;;;16.70;56.40;17.40;100085.00;;;;5008491;28;20242;-45
2023/03/12 08:44:22;;;;;;;9.87;2.03;;;16.70;56.20;17.40;100090.00;;;;5010000;28;20214;-46
2023/03/12 08:46:48;;;;;;;2.67;1.90;;;16.70;56.20;17.50;100092.00;;;;5009594;28;20190;-45
2023/03/12 08:49:14;;;;;;;3.80;1.93;;;16.70;56.20;17.50;100082.00;;;;5010854;28;20246;-47
2023/03/12 08:51:40;;;;;;;3.03;2.07;;;16.70;56.20;17.50;100079.00;;;;5010599;28;20173;-46
2023/03/12 08:54:06;;;;;;;2.40;1.80;;;16.70;56.20;17.50;100078.00;;;;5010323;28;20568;-45
2023/03/12 08:56:31;;;;;;;1.90;1.70;;;16.70;56.20;17.50;100077.00;;;;5010179;28;20585;-46
2023/03/12 08:58:58;;;;;;;1.90;1.70;;;16.70;56.10;17.50;100081.00;;;;5007739;28;20263;-46
2023/03/12 09:01:23;;;;;;;2.87;1.83;;;16.70;56.10;17.50;100074.00;;;;5008109;28;20190;-46
2023/03/12 09:03:51;;;;;;;3.47;1.83;;;16.80;56.20;17.50;100062.00;;;;5008501;28;20314;-45
2023/03/12 09:06:18;;;;;;;2.10;1.90;;;16.70;56.20;17.50;100062.00;;;;5010074;28;20180;-46
2023/03/12 09:08:44;;;;;;;2.10;1.53;;;16.70;56.10;17.50;100066.00;;;;5009937;28;20612;-46
2023/03/12 09:11:10;;;;;;;2.80;1.87;;;16.80;56.20;17.50;100056.00;;;;5009901;28;20181;-46
2023/03/12 09:13:37;;;;;;;1.87;1.70;;;16.80;56.20;17.50;100063.00;;;;5010058;28;20176;-47
2023/03/12 09:16:04;;;;;;;2.13;1.77;;;16.80;56.10;17.60;100061.00;;;;5008467;28;20183;-46
2023/03/12 09:18:30;;;;;;;3.67;1.93;;;16.80;56.10;17.60;100075.00;;;;5008875;28;20204;-46
2023/03/12 09:20:56;;;;;;;3.83;2.00;;;16.80;56.20;17.60;100074.00;;;;5009652;28;20180;-47
2023/03/12 09:23:22;;;;;;;4.53;2.10;;;16.80;56.20;17.60;100080.00;;;;5009822;28;20192;-46
2023/03/12 09:25:48;;;;;;;5.23;1.90;;;16.80;56.20;17.60;100070.00;;;;5009002;28;20212;-46
2023/03/12 09:28:14;;;;;;;4.07;2.03;;;16.80;56.20;17.60;100079.00;;;;5009243;28;20645;-46
2023/03/12 09:30:39;;;;;;;3.73;2.00;;;16.90;56.30;17.60;100087.00;;;;5005192;28;20260;-46
2023/03/12 09:33:05;;;;;;;3.97;2.13;;;16.90;56.30;17.60;100075.00;;;;5003046;28;20189;-46
2023/03/12 09:35:31;;;;;;;2.43;1.90;;;16.90;56.30;17.70;100083.00;;;;5001777;28;20182;-46
2023/03/12 09:37:57;;;;;;;4.80;2.00;;;16.90;56.30;17.70;100077.00;;;;5004070;28;20617;-46
2023/03/12 09:40:25;;;;;;;4.37;2.10;;;16.90;56.30;17.70;100082.00;;;;5011221;28;20258;-46
2023/03/12 09:42:54;;;;;;;4.37;2.00;;;17.00;56.40;17.70;100084.00;;;;5007761;28;20171;-47
2023/03/12 09:45:25;;;;;;;4.07;2.30;;;17.00;56.40;17.70;100085.00;;;;5008054;28;20292;-45
2023/03/12 09:47:56;;;;;;;2.57;1.80;;;17.00;56.40;17.70;100085.00;;;;4992210;28;20198;-46
2023/03/12 09:50:39;;;;;;;2.00;1.73;;;17.00;56.40;17.70;100078.00;;;;5007500;28;20276;-46
2023/03/12 09:53:39;;;;;;;3.73;1.70;;;17.00;56.70;17.70;100076.00;;;;5009639;28;20183;-46
2023/03/12 09:56:08;;;;;;;3.63;1.90;;;17.00;57.40;17.70;100081.00;;;;5009925;28;20193;-46
2023/03/12 09:58:37;;;;;;;3.87;1.90;;;17.00;57.50;17.80;100094.00;;;;4989458;28;20284;-46
2023/03/12 10:01:40;;;;;;;5.17;1.97;;;17.00;57.50;17.80;100090.00;;;;5022048;28;20184;-46
2023/03/12 10:04:40;;;;;;;3.77;2.10;;;17.10;57.70;17.80;100094.00;;;;5008739;28;20195;-46
2023/03/12 10:07:20;;;;;;;3.30;2.00;;;17.10;57.80;17.80;100086.00;;;;5011541;28;20212;-46
2023/03/12 10:10:13;;;;;;;5.13;2.20;;;17.10;57.80;17.80;100085.00;;;;5011073;28;20195;-45
2023/03/12 10:13:19;;;;;;;2.90;2.00;;;17.10;57.80;17.80;100086.00;;;;5011160;28;20186;-47
2023/03/12 10:16:36;;;;;;;3.07;1.90;;;17.10;58.20;17.80;100082.00;;;;5011542;28;20189;-46
2023/03/12 10:19:20;;;;;;;5.97;2.10;;;17.20;58.20;17.80;100068.00;;;;5006334;28;20649;-46
2023/03/12 10:22:35;;;;;;;5.40;2.30;;;17.20;58.20;17.90;100077.00;;;;5011186;28;20628;-46
2023/03/12 10:25:29;;;;;;;3.30;1.80;;;17.20;58.20;17.90;100081.00;;;;5010567;28;20272;-46
2023/03/12 10:28:00;;;;;;;5.63;2.10;;;17.20;57.80;17.80;100092.00;;;;5010893;28;20224;-45
2023/03/12 10:30:25;;;;;;;6.13;2.10;;;17.20;57.90;17.80;100053.00;;;;5010486;28;20234;-46
2023/03/12 10:33:03;;;;;;;3.73;2.00;;;17.10;57.70;17.80;100082.00;;;;5011715;28;20180;-45
2023/03/12 10:35:32;;;;;;;4.13;2.00;;;17.10;57.50;17.80;100086.00;;;;5011351;28;20572;-45
2023/03/12 10:37:59;;;;;;;2.37;2.00;;;17.10;57.40;17.80;100080.00;;;;5010528;28;20199;-46
2023/03/12 10:40:28;;;;;;;4.63;2.27;;;17.00;57.40;17.80;100093.00;;;;5009070;28;20176;-46
2023/03/12 10:42:54;;;;;;;8.90;2.40;;;17.00;57.40;17.80;100088.00;;;;5010892;28;20652;-46
2023/03/12 10:45:33;;;;;;;4.47;2.23;;;17.00;57.60;17.80;100081.00;;;;5019786;28;20172;-46
2023/03/12 10:48:07;;;;;;;5.00;2.20;;;17.00;57.60;17.80;100100.00;;;;5011572;28;20280;-45
2023/03/12 10:50:35;;;;;;;4.30;2.20;;;17.00;57.70;17.80;100107.00;;;;5012447;28;20179;-45
2023/03/12 10:53:27;;;;;;;4.37;2.10;;;17.00;57.70;17.80;100102.00;;;;5013919;28;20196;-45